Página principal
METAR-TAF:

METAR-TAF

Aeroportos :

Recife, Pernambuco, Brasil

Aeroporto Internacional do Recife

latitude: 08-08S, longitude: 034-55W, altura: 19 m

Observação actual do tempo

O boletim foi feito há 46 minutos, às 23:00 UTC
Vento 14 kt de su-sudeste
Temperatura 26°C
Humidade 74%
Pressão 1016 hPa
Visibilidade 10 km ou mais
Nuvens dispersasa uma altura de 2300 ft

METAR: SBRF 192300Z 16014KT 9999 SCT023 26/21 Q1016

Hora: 20:46 (23:46 UTC)

Previsão

O boletim foi feito há 1 hora e 46 minutos, às 22:00 UTC
Previsão válida de 20 às 00 UTC a 20 às 24 UTC
Vento 10 kt de sudeste
Visibilidade: 9000 m
Nuvens dispersasa uma altura de 2000 ft
Probabilidade 30% :
Temporariamente
de 20 às 03 UTC a 20 às 09 UTC
Visibilidade: 6000 m
Nuvens fragmentadasa uma altura de 1500 ft
aguaceiros de chuva

TAF: SBRF 192200Z 2000/2024 13010KT 9000 SCT020 TN23/2007Z TX29/2015Z PROB30 TEMPO 2003/2009 6000 SHRA BKN015 RMK PCN

Observações e previsões do tempo de mais de 4000 aeroportos (mensagens METAR e TAF).

As estações disponíveis são os pontos amarelos e vermelhos sobre o mapa.

Mova o rato sobre o mapa para ver o nome da estação.

Depois clique no ponto para visualizar as observações e previsões meteorológicas.

Para alterar o mapa : clique nos botões verdes com uma cruz preta para aumentar o zoom; no botão verde com uma pitada de zoom; ou nas setas verdes para mapas adjacentes.


METAR-TAF: